<?xml version="1.0" encoding="UTF-8" standalone="no" ?>
<gpx version="1.1" creator="Visorando" xmlns:xsi="http://www.w3.org/2001/XMLSchema-instance" xmlns="http://www.topografix.com/GPX/1/1" xsi:schemaLocation="http://www.topografix.com/GPX/1/1 http://www.topografix.com/GPX/1/1/gpx.xsd">
 <metadata>
  <name>Circuit de l’aqueduc de Montreuillon</name>
  <link href="https://www.visorando.com/randonnee-circuit-de-l-aqueduc/">
   <text>https://www.visorando.com/randonnee-circuit-de-l-aqueduc/</text>
  </link>
 </metadata>
 <wpt lat="47.184795" lon="3.743335">
  <ele>269</ele>
  <time>2020-05-22T17:29:26+02:00</time>
  <name>Reviry, parking</name>
 </wpt>
 <wpt lat="47.186339" lon="3.753764">
  <ele>322</ele>
  <time>2020-05-22T17:30:06+02:00</time>
  <name>Croisement, tout droit</name>
 </wpt>
 <wpt lat="47.193776" lon="3.761768">
  <ele>318</ele>
  <time>2020-05-22T17:30:51+02:00</time>
  <name>Route empierrée, en face</name>
 </wpt>
 <wpt lat="47.204988" lon="3.767905">
  <ele>363</ele>
  <time>2020-05-22T17:31:51+02:00</time>
  <name>Croisement du Mauvais Pas, à droite</name>
 </wpt>
 <wpt lat="47.202538" lon="3.772282">
  <ele>331</ele>
  <time>2020-05-22T17:32:36+02:00</time>
  <name>Bifurcation à gauche</name>
 </wpt>
 <wpt lat="47.192733" lon="3.785542">
  <ele>350</ele>
  <time>2020-05-22T17:34:01+02:00</time>
  <name>Croisement multiple, à droite</name>
 </wpt>
 <wpt lat="47.184859" lon="3.743314">
  <ele>269</ele>
  <time>2020-05-22T17:43:41+02:00</time>
  <name>Reviry, parking</name>
 </wpt>
 <trk>
  <name>Circuit de l’aqueduc de Montreuillon</name>
  <trkseg>
   <trkpt lat="47.184795" lon="3.743335">
    <ele>269</ele>
    <time>2020-05-22T17:29:26+02:00</time>
   </trkpt>
   <trkpt lat="47.184772" lon="3.744473">
    <ele>275</ele>
    <time>2020-05-22T17:29:31+02:00</time>
   </trkpt>
   <trkpt lat="47.184341" lon="3.745503">
    <ele>283</ele>
    <time>2020-05-22T17:29:36+02:00</time>
   </trkpt>
   <trkpt lat="47.184422" lon="3.747262">
    <ele>296</ele>
    <time>2020-05-22T17:29:41+02:00</time>
   </trkpt>
   <trkpt lat="47.184509" lon="3.74812">
    <ele>304</ele>
    <time>2020-05-22T17:29:46+02:00</time>
   </trkpt>
   <trkpt lat="47.184677" lon="3.749751">
    <ele>318</ele>
    <time>2020-05-22T17:29:51+02:00</time>
   </trkpt>
   <trkpt lat="47.185012" lon="3.750738">
    <ele>323</ele>
    <time>2020-05-22T17:29:56+02:00</time>
   </trkpt>
   <trkpt lat="47.185559" lon="3.752369">
    <ele>324</ele>
    <time>2020-05-22T17:30:01+02:00</time>
   </trkpt>
   <trkpt lat="47.186339" lon="3.753764">
    <ele>322</ele>
    <time>2020-05-22T17:30:06+02:00</time>
   </trkpt>
   <trkpt lat="47.18771" lon="3.755974">
    <ele>315</ele>
    <time>2020-05-22T17:30:11+02:00</time>
   </trkpt>
   <trkpt lat="47.188672" lon="3.757111">
    <ele>312</ele>
    <time>2020-05-22T17:30:16+02:00</time>
   </trkpt>
   <trkpt lat="47.18962" lon="3.757691">
    <ele>315</ele>
    <time>2020-05-22T17:30:21+02:00</time>
   </trkpt>
   <trkpt lat="47.190626" lon="3.758678">
    <ele>317</ele>
    <time>2020-05-22T17:30:26+02:00</time>
   </trkpt>
   <trkpt lat="47.190947" lon="3.759085">
    <ele>316</ele>
    <time>2020-05-22T17:30:31+02:00</time>
   </trkpt>
   <trkpt lat="47.19156" lon="3.759364">
    <ele>313</ele>
    <time>2020-05-22T17:30:36+02:00</time>
   </trkpt>
   <trkpt lat="47.192201" lon="3.76018">
    <ele>307</ele>
    <time>2020-05-22T17:30:41+02:00</time>
   </trkpt>
   <trkpt lat="47.193309" lon="3.761446">
    <ele>313</ele>
    <time>2020-05-22T17:30:46+02:00</time>
   </trkpt>
   <trkpt lat="47.193776" lon="3.761768">
    <ele>318</ele>
    <time>2020-05-22T17:30:51+02:00</time>
   </trkpt>
   <trkpt lat="47.194155" lon="3.761896">
    <ele>322</ele>
    <time>2020-05-22T17:30:56+02:00</time>
   </trkpt>
   <trkpt lat="47.196998" lon="3.763141">
    <ele>350</ele>
    <time>2020-05-22T17:31:01+02:00</time>
   </trkpt>
   <trkpt lat="47.199462" lon="3.764407">
    <ele>361</ele>
    <time>2020-05-22T17:31:06+02:00</time>
   </trkpt>
   <trkpt lat="47.200118" lon="3.764729">
    <ele>356</ele>
    <time>2020-05-22T17:31:11+02:00</time>
   </trkpt>
   <trkpt lat="47.200869" lon="3.765501">
    <ele>353</ele>
    <time>2020-05-22T17:31:16+02:00</time>
   </trkpt>
   <trkpt lat="47.201423" lon="3.765587">
    <ele>352</ele>
    <time>2020-05-22T17:31:21+02:00</time>
   </trkpt>
   <trkpt lat="47.202035" lon="3.766102">
    <ele>353</ele>
    <time>2020-05-22T17:31:26+02:00</time>
   </trkpt>
   <trkpt lat="47.202735" lon="3.766531">
    <ele>358</ele>
    <time>2020-05-22T17:31:31+02:00</time>
   </trkpt>
   <trkpt lat="47.20318" lon="3.767089">
    <ele>362</ele>
    <time>2020-05-22T17:31:36+02:00</time>
   </trkpt>
   <trkpt lat="47.203676" lon="3.767561">
    <ele>363</ele>
    <time>2020-05-22T17:31:41+02:00</time>
   </trkpt>
   <trkpt lat="47.204507" lon="3.767647">
    <ele>361</ele>
    <time>2020-05-22T17:31:46+02:00</time>
   </trkpt>
   <trkpt lat="47.204988" lon="3.767905">
    <ele>363</ele>
    <time>2020-05-22T17:31:51+02:00</time>
   </trkpt>
   <trkpt lat="47.204834" lon="3.768333">
    <ele>367</ele>
    <time>2020-05-22T17:31:56+02:00</time>
   </trkpt>
   <trkpt lat="47.204572" lon="3.769149">
    <ele>359</ele>
    <time>2020-05-22T17:32:01+02:00</time>
   </trkpt>
   <trkpt lat="47.204426" lon="3.770565">
    <ele>352</ele>
    <time>2020-05-22T17:32:06+02:00</time>
   </trkpt>
   <trkpt lat="47.204339" lon="3.77108">
    <ele>349</ele>
    <time>2020-05-22T17:32:11+02:00</time>
   </trkpt>
   <trkpt lat="47.204106" lon="3.77181">
    <ele>343</ele>
    <time>2020-05-22T17:32:16+02:00</time>
   </trkpt>
   <trkpt lat="47.203727" lon="3.772367">
    <ele>336</ele>
    <time>2020-05-22T17:32:21+02:00</time>
   </trkpt>
   <trkpt lat="47.203202" lon="3.772582">
    <ele>332</ele>
    <time>2020-05-22T17:32:26+02:00</time>
   </trkpt>
   <trkpt lat="47.202881" lon="3.772539">
    <ele>331</ele>
    <time>2020-05-22T17:32:31+02:00</time>
   </trkpt>
   <trkpt lat="47.202538" lon="3.772282">
    <ele>331</ele>
    <time>2020-05-22T17:32:36+02:00</time>
   </trkpt>
   <trkpt lat="47.202626" lon="3.772818">
    <ele>330</ele>
    <time>2020-05-22T17:32:41+02:00</time>
   </trkpt>
   <trkpt lat="47.202582" lon="3.773226">
    <ele>330</ele>
    <time>2020-05-22T17:32:46+02:00</time>
   </trkpt>
   <trkpt lat="47.20224" lon="3.773355">
    <ele>336</ele>
    <time>2020-05-22T17:32:51+02:00</time>
   </trkpt>
   <trkpt lat="47.20146" lon="3.773419">
    <ele>349</ele>
    <time>2020-05-22T17:32:56+02:00</time>
   </trkpt>
   <trkpt lat="47.200665" lon="3.773612">
    <ele>354</ele>
    <time>2020-05-22T17:33:01+02:00</time>
   </trkpt>
   <trkpt lat="47.200228" lon="3.773827">
    <ele>353</ele>
    <time>2020-05-22T17:33:06+02:00</time>
   </trkpt>
   <trkpt lat="47.199703" lon="3.774513">
    <ele>354</ele>
    <time>2020-05-22T17:33:11+02:00</time>
   </trkpt>
   <trkpt lat="47.19912" lon="3.775801">
    <ele>354</ele>
    <time>2020-05-22T17:33:16+02:00</time>
   </trkpt>
   <trkpt lat="47.19807" lon="3.777217">
    <ele>350</ele>
    <time>2020-05-22T17:33:21+02:00</time>
   </trkpt>
   <trkpt lat="47.197159" lon="3.778934">
    <ele>353</ele>
    <time>2020-05-22T17:33:26+02:00</time>
   </trkpt>
   <trkpt lat="47.196925" lon="3.779899">
    <ele>356</ele>
    <time>2020-05-22T17:33:31+02:00</time>
   </trkpt>
   <trkpt lat="47.196546" lon="3.780908">
    <ele>359</ele>
    <time>2020-05-22T17:33:36+02:00</time>
   </trkpt>
   <trkpt lat="47.195854" lon="3.782023">
    <ele>352</ele>
    <time>2020-05-22T17:33:41+02:00</time>
   </trkpt>
   <trkpt lat="47.19522" lon="3.783011">
    <ele>347</ele>
    <time>2020-05-22T17:33:46+02:00</time>
   </trkpt>
   <trkpt lat="47.194578" lon="3.783805">
    <ele>348</ele>
    <time>2020-05-22T17:33:51+02:00</time>
   </trkpt>
   <trkpt lat="47.193586" lon="3.784835">
    <ele>349</ele>
    <time>2020-05-22T17:33:56+02:00</time>
   </trkpt>
   <trkpt lat="47.192733" lon="3.785542">
    <ele>350</ele>
    <time>2020-05-22T17:34:01+02:00</time>
   </trkpt>
   <trkpt lat="47.192478" lon="3.785178">
    <ele>346</ele>
    <time>2020-05-22T17:34:06+02:00</time>
   </trkpt>
   <trkpt lat="47.192267" lon="3.78447">
    <ele>349</ele>
    <time>2020-05-22T17:34:11+02:00</time>
   </trkpt>
   <trkpt lat="47.191997" lon="3.78432">
    <ele>352</ele>
    <time>2020-05-22T17:34:16+02:00</time>
   </trkpt>
   <trkpt lat="47.191742" lon="3.78447">
    <ele>352</ele>
    <time>2020-05-22T17:34:21+02:00</time>
   </trkpt>
   <trkpt lat="47.191275" lon="3.784813">
    <ele>349</ele>
    <time>2020-05-22T17:34:26+02:00</time>
   </trkpt>
   <trkpt lat="47.190918" lon="3.785285">
    <ele>344</ele>
    <time>2020-05-22T17:34:31+02:00</time>
   </trkpt>
   <trkpt lat="47.190393" lon="3.785371">
    <ele>345</ele>
    <time>2020-05-22T17:34:36+02:00</time>
   </trkpt>
   <trkpt lat="47.190014" lon="3.785564">
    <ele>343</ele>
    <time>2020-05-22T17:34:41+02:00</time>
   </trkpt>
   <trkpt lat="47.189372" lon="3.785843">
    <ele>344</ele>
    <time>2020-05-22T17:34:46+02:00</time>
   </trkpt>
   <trkpt lat="47.188359" lon="3.785972">
    <ele>349</ele>
    <time>2020-05-22T17:34:51+02:00</time>
   </trkpt>
   <trkpt lat="47.187929" lon="3.786551">
    <ele>348</ele>
    <time>2020-05-22T17:34:56+02:00</time>
   </trkpt>
   <trkpt lat="47.187389" lon="3.787088">
    <ele>345</ele>
    <time>2020-05-22T17:35:01+02:00</time>
   </trkpt>
   <trkpt lat="47.186492" lon="3.787517">
    <ele>344</ele>
    <time>2020-05-22T17:35:06+02:00</time>
   </trkpt>
   <trkpt lat="47.184473" lon="3.787388">
    <ele>329</ele>
    <time>2020-05-22T17:35:11+02:00</time>
   </trkpt>
   <trkpt lat="47.182555" lon="3.787087">
    <ele>315</ele>
    <time>2020-05-22T17:35:16+02:00</time>
   </trkpt>
   <trkpt lat="47.181796" lon="3.787087">
    <ele>309</ele>
    <time>2020-05-22T17:35:21+02:00</time>
   </trkpt>
   <trkpt lat="47.181242" lon="3.787431">
    <ele>303</ele>
    <time>2020-05-22T17:35:26+02:00</time>
   </trkpt>
   <trkpt lat="47.18063" lon="3.787731">
    <ele>298</ele>
    <time>2020-05-22T17:35:31+02:00</time>
   </trkpt>
   <trkpt lat="47.180221" lon="3.787817">
    <ele>296</ele>
    <time>2020-05-22T17:35:36+02:00</time>
   </trkpt>
   <trkpt lat="47.179776" lon="3.787431">
    <ele>292</ele>
    <time>2020-05-22T17:35:41+02:00</time>
   </trkpt>
   <trkpt lat="47.179324" lon="3.786873">
    <ele>282</ele>
    <time>2020-05-22T17:35:46+02:00</time>
   </trkpt>
   <trkpt lat="47.179091" lon="3.786272">
    <ele>270</ele>
    <time>2020-05-22T17:35:51+02:00</time>
   </trkpt>
   <trkpt lat="47.179288" lon="3.785929">
    <ele>269</ele>
    <time>2020-05-22T17:35:56+02:00</time>
   </trkpt>
   <trkpt lat="47.17993" lon="3.785757">
    <ele>274</ele>
    <time>2020-05-22T17:36:01+02:00</time>
   </trkpt>
   <trkpt lat="47.180156" lon="3.785779">
    <ele>277</ele>
    <time>2020-05-22T17:36:06+02:00</time>
   </trkpt>
   <trkpt lat="47.180243" lon="3.78477">
    <ele>272</ele>
    <time>2020-05-22T17:36:11+02:00</time>
   </trkpt>
   <trkpt lat="47.18032" lon="3.784491">
    <ele>271</ele>
    <time>2020-05-22T17:36:16+02:00</time>
   </trkpt>
   <trkpt lat="47.180517" lon="3.784191">
    <ele>272</ele>
    <time>2020-05-22T17:36:21+02:00</time>
   </trkpt>
   <trkpt lat="47.180611" lon="3.783783">
    <ele>271</ele>
    <time>2020-05-22T17:36:26+02:00</time>
   </trkpt>
   <trkpt lat="47.180455" lon="3.782925">
    <ele>267</ele>
    <time>2020-05-22T17:36:31+02:00</time>
   </trkpt>
   <trkpt lat="47.180221" lon="3.782195">
    <ele>261</ele>
    <time>2020-05-22T17:36:36+02:00</time>
   </trkpt>
   <trkpt lat="47.180484" lon="3.781594">
    <ele>266</ele>
    <time>2020-05-22T17:36:41+02:00</time>
   </trkpt>
   <trkpt lat="47.180863" lon="3.780779">
    <ele>271</ele>
    <time>2020-05-22T17:36:46+02:00</time>
   </trkpt>
   <trkpt lat="47.181009" lon="3.780264">
    <ele>273</ele>
    <time>2020-05-22T17:36:51+02:00</time>
   </trkpt>
   <trkpt lat="47.180896" lon="3.779417">
    <ele>273</ele>
    <time>2020-05-22T17:36:56+02:00</time>
   </trkpt>
   <trkpt lat="47.180509" lon="3.779052">
    <ele>267</ele>
    <time>2020-05-22T17:37:01+02:00</time>
   </trkpt>
   <trkpt lat="47.180203" lon="3.778451">
    <ele>267</ele>
    <time>2020-05-22T17:37:06+02:00</time>
   </trkpt>
   <trkpt lat="47.179871" lon="3.77756">
    <ele>262</ele>
    <time>2020-05-22T17:37:11+02:00</time>
   </trkpt>
   <trkpt lat="47.178393" lon="3.777346">
    <ele>279</ele>
    <time>2020-05-22T17:37:16+02:00</time>
   </trkpt>
   <trkpt lat="47.178451" lon="3.776573">
    <ele>285</ele>
    <time>2020-05-22T17:37:21+02:00</time>
   </trkpt>
   <trkpt lat="47.178655" lon="3.775415">
    <ele>290</ele>
    <time>2020-05-22T17:37:26+02:00</time>
   </trkpt>
   <trkpt lat="47.179107" lon="3.774385">
    <ele>291</ele>
    <time>2020-05-22T17:37:31+02:00</time>
   </trkpt>
   <trkpt lat="47.179676" lon="3.773677">
    <ele>285</ele>
    <time>2020-05-22T17:37:36+02:00</time>
   </trkpt>
   <trkpt lat="47.180187" lon="3.773183">
    <ele>275</ele>
    <time>2020-05-22T17:37:41+02:00</time>
   </trkpt>
   <trkpt lat="47.180289" lon="3.772861">
    <ele>272</ele>
    <time>2020-05-22T17:37:46+02:00</time>
   </trkpt>
   <trkpt lat="47.180245" lon="3.772411">
    <ele>274</ele>
    <time>2020-05-22T17:37:51+02:00</time>
   </trkpt>
   <trkpt lat="47.180041" lon="3.771166">
    <ele>280</ele>
    <time>2020-05-22T17:37:56+02:00</time>
   </trkpt>
   <trkpt lat="47.179618" lon="3.766789">
    <ele>271</ele>
    <time>2020-05-22T17:38:01+02:00</time>
   </trkpt>
   <trkpt lat="47.179385" lon="3.765952">
    <ele>269</ele>
    <time>2020-05-22T17:38:06+02:00</time>
   </trkpt>
   <trkpt lat="47.178728" lon="3.765051">
    <ele>273</ele>
    <time>2020-05-22T17:38:11+02:00</time>
   </trkpt>
   <trkpt lat="47.178218" lon="3.763935">
    <ele>269</ele>
    <time>2020-05-22T17:38:16+02:00</time>
   </trkpt>
   <trkpt lat="47.177357" lon="3.763398">
    <ele>270</ele>
    <time>2020-05-22T17:38:21+02:00</time>
   </trkpt>
   <trkpt lat="47.17657" lon="3.763549">
    <ele>275</ele>
    <time>2020-05-22T17:38:26+02:00</time>
   </trkpt>
   <trkpt lat="47.176453" lon="3.761961">
    <ele>276</ele>
    <time>2020-05-22T17:38:31+02:00</time>
   </trkpt>
   <trkpt lat="47.176395" lon="3.760952">
    <ele>281</ele>
    <time>2020-05-22T17:38:36+02:00</time>
   </trkpt>
   <trkpt lat="47.176482" lon="3.759987">
    <ele>280</ele>
    <time>2020-05-22T17:38:41+02:00</time>
   </trkpt>
   <trkpt lat="47.176599" lon="3.758742">
    <ele>282</ele>
    <time>2020-05-22T17:38:46+02:00</time>
   </trkpt>
   <trkpt lat="47.176993" lon="3.75709">
    <ele>284</ele>
    <time>2020-05-22T17:38:51+02:00</time>
   </trkpt>
   <trkpt lat="47.177707" lon="3.755931">
    <ele>284</ele>
    <time>2020-05-22T17:38:56+02:00</time>
   </trkpt>
   <trkpt lat="47.178437" lon="3.75533">
    <ele>276</ele>
    <time>2020-05-22T17:39:01+02:00</time>
   </trkpt>
   <trkpt lat="47.178918" lon="3.755073">
    <ele>271</ele>
    <time>2020-05-22T17:39:06+02:00</time>
   </trkpt>
   <trkpt lat="47.179122" lon="3.754837">
    <ele>268</ele>
    <time>2020-05-22T17:39:11+02:00</time>
   </trkpt>
   <trkpt lat="47.178903" lon="3.754601">
    <ele>269</ele>
    <time>2020-05-22T17:39:16+02:00</time>
   </trkpt>
   <trkpt lat="47.178524" lon="3.75415">
    <ele>271</ele>
    <time>2020-05-22T17:39:21+02:00</time>
   </trkpt>
   <trkpt lat="47.177795" lon="3.753206">
    <ele>272</ele>
    <time>2020-05-22T17:39:26+02:00</time>
   </trkpt>
   <trkpt lat="47.177299" lon="3.752434">
    <ele>268</ele>
    <time>2020-05-22T17:39:31+02:00</time>
   </trkpt>
   <trkpt lat="47.176847" lon="3.752198">
    <ele>267</ele>
    <time>2020-05-22T17:39:36+02:00</time>
   </trkpt>
   <trkpt lat="47.176161" lon="3.752026">
    <ele>267</ele>
    <time>2020-05-22T17:39:41+02:00</time>
   </trkpt>
   <trkpt lat="47.175651" lon="3.752069">
    <ele>268</ele>
    <time>2020-05-22T17:39:46+02:00</time>
   </trkpt>
   <trkpt lat="47.175199" lon="3.752198">
    <ele>268</ele>
    <time>2020-05-22T17:39:51+02:00</time>
   </trkpt>
   <trkpt lat="47.174673" lon="3.752434">
    <ele>270</ele>
    <time>2020-05-22T17:39:56+02:00</time>
   </trkpt>
   <trkpt lat="47.174119" lon="3.752605">
    <ele>272</ele>
    <time>2020-05-22T17:40:01+02:00</time>
   </trkpt>
   <trkpt lat="47.173915" lon="3.752369">
    <ele>274</ele>
    <time>2020-05-22T17:40:06+02:00</time>
   </trkpt>
   <trkpt lat="47.17409" lon="3.751296">
    <ele>273</ele>
    <time>2020-05-22T17:40:11+02:00</time>
   </trkpt>
   <trkpt lat="47.174382" lon="3.750009">
    <ele>269</ele>
    <time>2020-05-22T17:40:16+02:00</time>
   </trkpt>
   <trkpt lat="47.174367" lon="3.749129">
    <ele>268</ele>
    <time>2020-05-22T17:40:21+02:00</time>
   </trkpt>
   <trkpt lat="47.174221" lon="3.748528">
    <ele>267</ele>
    <time>2020-05-22T17:40:26+02:00</time>
   </trkpt>
   <trkpt lat="47.174017" lon="3.748121">
    <ele>266</ele>
    <time>2020-05-22T17:40:31+02:00</time>
   </trkpt>
   <trkpt lat="47.173696" lon="3.747863">
    <ele>267</ele>
    <time>2020-05-22T17:40:36+02:00</time>
   </trkpt>
   <trkpt lat="47.173244" lon="3.747863">
    <ele>270</ele>
    <time>2020-05-22T17:40:41+02:00</time>
   </trkpt>
   <trkpt lat="47.172806" lon="3.747927">
    <ele>275</ele>
    <time>2020-05-22T17:40:46+02:00</time>
   </trkpt>
   <trkpt lat="47.172485" lon="3.747799">
    <ele>277</ele>
    <time>2020-05-22T17:40:51+02:00</time>
   </trkpt>
   <trkpt lat="47.1725" lon="3.747198">
    <ele>277</ele>
    <time>2020-05-22T17:40:56+02:00</time>
   </trkpt>
   <trkpt lat="47.172748" lon="3.746468">
    <ele>276</ele>
    <time>2020-05-22T17:41:01+02:00</time>
   </trkpt>
   <trkpt lat="47.173302" lon="3.745589">
    <ele>273</ele>
    <time>2020-05-22T17:41:06+02:00</time>
   </trkpt>
   <trkpt lat="47.173521" lon="3.744623">
    <ele>269</ele>
    <time>2020-05-22T17:41:11+02:00</time>
   </trkpt>
   <trkpt lat="47.173434" lon="3.743808">
    <ele>270</ele>
    <time>2020-05-22T17:41:16+02:00</time>
   </trkpt>
   <trkpt lat="47.173288" lon="3.742906">
    <ele>272</ele>
    <time>2020-05-22T17:41:21+02:00</time>
   </trkpt>
   <trkpt lat="47.173492" lon="3.742477">
    <ele>271</ele>
    <time>2020-05-22T17:41:26+02:00</time>
   </trkpt>
   <trkpt lat="47.173871" lon="3.741726">
    <ele>268</ele>
    <time>2020-05-22T17:41:31+02:00</time>
   </trkpt>
   <trkpt lat="47.173891" lon="3.741082">
    <ele>268</ele>
    <time>2020-05-22T17:41:36+02:00</time>
   </trkpt>
   <trkpt lat="47.173827" lon="3.740589">
    <ele>268</ele>
    <time>2020-05-22T17:41:41+02:00</time>
   </trkpt>
   <trkpt lat="47.173661" lon="3.74001">
    <ele>267</ele>
    <time>2020-05-22T17:41:46+02:00</time>
   </trkpt>
   <trkpt lat="47.173191" lon="3.739838">
    <ele>268</ele>
    <time>2020-05-22T17:41:51+02:00</time>
   </trkpt>
   <trkpt lat="47.172852" lon="3.739763">
    <ele>268</ele>
    <time>2020-05-22T17:41:56+02:00</time>
   </trkpt>
   <trkpt lat="47.173133" lon="3.738851">
    <ele>262</ele>
    <time>2020-05-22T17:42:01+02:00</time>
   </trkpt>
   <trkpt lat="47.173716" lon="3.738679">
    <ele>259</ele>
    <time>2020-05-22T17:42:06+02:00</time>
   </trkpt>
   <trkpt lat="47.174095" lon="3.738593">
    <ele>257</ele>
    <time>2020-05-22T17:42:11+02:00</time>
   </trkpt>
   <trkpt lat="47.174475" lon="3.738421">
    <ele>253</ele>
    <time>2020-05-22T17:42:16+02:00</time>
   </trkpt>
   <trkpt lat="47.174971" lon="3.738379">
    <ele>249</ele>
    <time>2020-05-22T17:42:21+02:00</time>
   </trkpt>
   <trkpt lat="47.175116" lon="3.738894">
    <ele>251</ele>
    <time>2020-05-22T17:42:26+02:00</time>
   </trkpt>
   <trkpt lat="47.175175" lon="3.739881">
    <ele>251</ele>
    <time>2020-05-22T17:42:31+02:00</time>
   </trkpt>
   <trkpt lat="47.175262" lon="3.740868">
    <ele>250</ele>
    <time>2020-05-22T17:42:36+02:00</time>
   </trkpt>
   <trkpt lat="47.175583" lon="3.741855">
    <ele>244</ele>
    <time>2020-05-22T17:42:41+02:00</time>
   </trkpt>
   <trkpt lat="47.175758" lon="3.742155">
    <ele>240</ele>
    <time>2020-05-22T17:42:46+02:00</time>
   </trkpt>
   <trkpt lat="47.175899" lon="3.742756">
    <ele>235</ele>
    <time>2020-05-22T17:42:51+02:00</time>
   </trkpt>
   <trkpt lat="47.176045" lon="3.743507">
    <ele>231</ele>
    <time>2020-05-22T17:42:56+02:00</time>
   </trkpt>
   <trkpt lat="47.176779" lon="3.744344">
    <ele>232</ele>
    <time>2020-05-22T17:43:01+02:00</time>
   </trkpt>
   <trkpt lat="47.177567" lon="3.743657">
    <ele>232</ele>
    <time>2020-05-22T17:43:06+02:00</time>
   </trkpt>
   <trkpt lat="47.181446" lon="3.743443">
    <ele>257</ele>
    <time>2020-05-22T17:43:11+02:00</time>
   </trkpt>
   <trkpt lat="47.182301" lon="3.742949">
    <ele>258</ele>
    <time>2020-05-22T17:43:16+02:00</time>
   </trkpt>
   <trkpt lat="47.183527" lon="3.742048">
    <ele>258</ele>
    <time>2020-05-22T17:43:21+02:00</time>
   </trkpt>
   <trkpt lat="47.184606" lon="3.741619">
    <ele>259</ele>
    <time>2020-05-22T17:43:26+02:00</time>
   </trkpt>
   <trkpt lat="47.184772" lon="3.742069">
    <ele>261</ele>
    <time>2020-05-22T17:43:31+02:00</time>
   </trkpt>
   <trkpt lat="47.185034" lon="3.742241">
    <ele>262</ele>
    <time>2020-05-22T17:43:36+02:00</time>
   </trkpt>
   <trkpt lat="47.184859" lon="3.743314">
    <ele>269</ele>
    <time>2020-05-22T17:43:41+02:00</time>
   </trkpt>
  </trkseg>
 </trk></gpx>